createdAt,value
2023-02-13T00:00:19.646Z,0
2023-02-13T00:01:22.674Z,0
2023-02-13T00:02:25.762Z,0
2023-02-13T00:03:31.053Z,0
2023-02-13T00:04:34.596Z,0
2023-02-13T00:05:37.468Z,0
2023-02-13T00:06:40.925Z,0
2023-02-13T00:07:44.533Z,0
2023-02-13T00:08:47.402Z,0
2023-02-13T00:09:50.138Z,0
2023-02-13T00:10:54.192Z,0
2023-02-13T00:11:59.697Z,0
2023-02-13T00:13:03.360Z,0
2023-02-13T00:14:06.962Z,0
2023-02-13T00:15:09.863Z,0
2023-02-13T00:16:13.642Z,0
2023-02-13T00:17:17.042Z,0
2023-02-13T00:18:21.311Z,0
2023-02-13T00:19:23.847Z,0
2023-02-13T00:20:27.184Z,0
2023-02-13T00:21:30.907Z,0
2023-02-13T00:22:34.992Z,0
2023-02-13T00:23:38.340Z,0
2023-02-13T00:24:41.915Z,0
2023-02-13T00:25:46.027Z,0
2023-02-13T00:26:49.374Z,0
2023-02-13T00:27:52.847Z,0
2023-02-13T00:28:55.596Z,0
2023-02-13T00:29:57.905Z,0
2023-02-13T00:31:01.844Z,0
2023-02-13T00:32:07.285Z,0
2023-02-13T00:33:13.110Z,0
2023-02-13T00:34:16.271Z,0
2023-02-13T00:35:19.824Z,0
2023-02-13T00:36:23.049Z,0
2023-02-13T00:37:26.197Z,0
2023-02-13T00:38:30.240Z,0
2023-02-13T00:39:33.885Z,0
2023-02-13T00:40:36.977Z,0
2023-02-13T00:41:39.870Z,0
2023-02-13T00:42:43.255Z,0
2023-02-13T00:43:46.337Z,0
2023-02-13T00:44:49.497Z,0
2023-02-13T00:45:52.950Z,0
2023-02-13T00:46:56.731Z,0
2023-02-13T00:48:00.083Z,0
2023-02-13T00:49:02.314Z,0
2023-02-13T00:50:04.640Z,0
2023-02-13T00:51:08.333Z,0
2023-02-13T00:52:11.126Z,0
2023-02-13T00:53:14.796Z,0
2023-02-13T00:54:18.230Z,0
2023-02-13T00:55:21.234Z,0
2023-02-13T00:56:24.622Z,0
2023-02-13T00:57:27.127Z,0
2023-02-13T00:58:30.573Z,0
2023-02-13T00:59:34.322Z,0
2023-02-13T01:00:37.352Z,0
2023-02-13T01:01:40.736Z,0
2023-02-13T01:02:44.152Z,0
2023-02-13T01:03:46.902Z,0
2023-02-13T01:04:50.197Z,0
2023-02-13T01:05:53.353Z,0
2023-02-13T01:06:56.446Z,0
2023-02-13T01:07:59.167Z,0
2023-02-13T01:09:02.628Z,0
2023-02-13T01:10:06.474Z,0
2023-02-13T01:11:10.171Z,0
2023-02-13T01:12:13.284Z,0
2023-02-13T01:13:16.575Z,0
2023-02-13T01:14:19.963Z,0
2023-02-13T01:15:22.787Z,0
2023-02-13T01:16:26.030Z,0
2023-02-13T01:17:29.793Z,0
2023-02-13T01:18:32.877Z,0
2023-02-13T01:19:36.322Z,0
2023-02-13T01:20:39.052Z,0
2023-02-13T01:21:42.116Z,0
2023-02-13T01:22:45.567Z,0
2023-02-13T01:23:48.982Z,0
2023-02-13T01:24:51.799Z,0
2023-02-13T01:25:55.480Z,0
2023-02-13T01:26:59.023Z,0
2023-02-13T01:28:01.768Z,0
2023-02-13T01:29:04.844Z,0
2023-02-13T01:30:08.034Z,0
2023-02-13T01:31:12.210Z,0
2023-02-13T01:32:16.815Z,0
2023-02-13T01:33:20.450Z,0
2023-02-13T01:34:24.134Z,0
2023-02-13T01:35:27.812Z,0
2023-02-13T01:36:30.915Z,0
2023-02-13T01:37:33.931Z,0
2023-02-13T01:38:37.280Z,0
2023-02-13T01:39:40.076Z,0
2023-02-13T01:40:43.360Z,0
2023-02-13T01:41:46.772Z,0
2023-02-13T01:42:50.138Z,0
2023-02-13T01:43:52.670Z,0
2023-02-13T01:44:56.085Z,0
2023-02-13T01:45:59.017Z,0
2023-02-13T01:47:02.779Z,0
2023-02-13T01:48:06.093Z,0
2023-02-13T01:49:09.809Z,0
2023-02-13T01:50:12.906Z,0
2023-02-13T01:51:15.984Z,0
2023-02-13T01:52:17.930Z,0
2023-02-13T01:53:20.908Z,0
2023-02-13T01:54:24.638Z,0
2023-02-13T01:55:27.073Z,0
2023-02-13T01:56:29.784Z,0
2023-02-13T01:57:33.518Z,0
2023-02-13T01:58:36.982Z,0
2023-02-13T01:59:39.716Z,0
2023-02-13T02:00:43.342Z,0
2023-02-13T02:01:47.202Z,0
2023-02-13T02:02:50.941Z,0
2023-02-13T02:03:54.298Z,0
2023-02-13T02:04:57.125Z,0
2023-02-13T02:06:00.149Z,0
2023-02-13T02:07:03.484Z,0
2023-02-13T02:08:07.301Z,0
2023-02-13T02:09:10.012Z,0
2023-02-13T02:10:13.081Z,0
2023-02-13T02:11:15.845Z,0
2023-02-13T02:12:18.910Z,0
2023-02-13T02:13:22.333Z,0
2023-02-13T02:14:25.865Z,0
2023-02-13T02:15:29.127Z,0
2023-02-13T02:16:31.274Z,0
2023-02-13T02:17:34.638Z,0
2023-02-13T02:18:38.035Z,0
2023-02-13T02:19:41.399Z,0
2023-02-13T02:20:44.594Z,0
2023-02-13T02:21:48.025Z,0
2023-02-13T02:22:51.867Z,0
2023-02-13T02:23:55.020Z,0
2023-02-13T02:24:58.082Z,0
2023-02-13T02:26:00.975Z,0
2023-02-13T02:27:04.792Z,0
2023-02-13T02:28:07.878Z,0
2023-02-13T02:29:11.504Z,0
2023-02-13T02:30:14.646Z,0
2023-02-13T02:31:18.365Z,0
2023-02-13T02:32:21.248Z,0
2023-02-13T02:33:24.236Z,0
2023-02-13T02:34:27.352Z,0
2023-02-13T02:35:30.388Z,0
2023-02-13T02:36:33.123Z,0
2023-02-13T02:37:35.299Z,0
2023-02-13T02:38:37.720Z,0
2023-02-13T02:39:40.778Z,0
2023-02-13T02:40:43.842Z,0
2023-02-13T02:41:46.541Z,0
2023-02-13T02:42:48.698Z,0
2023-02-13T02:43:51.414Z,0
2023-02-13T02:44:55.239Z,0
2023-02-13T02:45:57.992Z,0
2023-02-13T02:47:01.710Z,0
2023-02-13T02:48:05.057Z,0
2023-02-13T02:49:09.131Z,0
2023-02-13T02:50:12.223Z,0
2023-02-13T02:51:14.998Z,0
2023-02-13T02:52:18.017Z,0
2023-02-13T02:53:21.778Z,0
2023-02-13T02:54:25.040Z,0
2023-02-13T02:55:27.748Z,0
2023-02-13T02:56:30.846Z,0
2023-02-13T02:57:33.023Z,0
2023-02-13T02:58:36.153Z,0
2023-02-13T02:59:39.497Z,0
2023-02-13T03:00:43.292Z,0
2023-02-13T03:01:47.100Z,0
2023-02-13T03:02:49.914Z,0
2023-02-13T03:03:53.284Z,0
2023-02-13T03:04:56.971Z,0
2023-02-13T03:06:00.163Z,0
2023-02-13T03:07:03.010Z,0
2023-02-13T03:08:06.117Z,0
2023-02-13T03:09:08.945Z,0
2023-02-13T03:10:11.739Z,0
2023-02-13T03:11:15.808Z,0
2023-02-13T03:12:18.868Z,0
2023-02-13T03:13:22.268Z,0
2023-02-13T03:14:25.701Z,0
2023-02-13T03:15:29.075Z,0
2023-02-13T03:16:32.866Z,0
2023-02-13T03:17:36.513Z,0
2023-02-13T03:18:39.254Z,0
2023-02-13T03:19:42.910Z,0
2023-02-13T03:20:46.648Z,0
2023-02-13T03:21:49.735Z,0
2023-02-13T03:22:53.092Z,0
2023-02-13T03:23:56.109Z,0
2023-02-13T03:24:59.400Z,0
2023-02-13T03:26:02.670Z,0
2023-02-13T03:27:06.039Z,0
2023-02-13T03:28:09.550Z,0
2023-02-13T03:29:13.549Z,0
2023-02-13T03:30:16.816Z,0
2023-02-13T03:31:19.648Z,0
2023-02-13T03:32:23.994Z,0
2023-02-13T03:33:27.363Z,0
2023-02-13T03:34:31.128Z,0
2023-02-13T03:35:33.910Z,0
2023-02-13T03:36:37.580Z,0
2023-02-13T03:37:41.244Z,0
2023-02-13T03:38:44.409Z,0
2023-02-13T03:39:47.225Z,0
2023-02-13T03:40:50.254Z,0
2023-02-13T03:41:53.306Z,0
2023-02-13T03:42:56.378Z,0
2023-02-13T03:43:59.582Z,0
2023-02-13T03:45:02.935Z,0
2023-02-13T03:46:06.392Z,0
2023-02-13T03:47:09.676Z,0
2023-02-13T03:48:13.097Z,0
2023-02-13T03:49:16.419Z,0
2023-02-13T03:50:19.158Z,0
2023-02-13T03:51:22.235Z,0
2023-02-13T03:52:26.379Z,0
2023-02-13T03:53:29.781Z,0
2023-02-13T03:54:32.923Z,0
2023-02-13T03:55:36.105Z,0
2023-02-13T03:56:39.495Z,0
2023-02-13T03:57:42.569Z,0
2023-02-13T03:58:45.745Z,0
2023-02-13T03:59:48.624Z,0
2023-02-13T04:00:51.702Z,0
2023-02-13T04:01:55.306Z,0
2023-02-13T04:02:58.857Z,0
2023-02-13T04:04:02.626Z,0
2023-02-13T04:05:05.356Z,0
2023-02-13T04:06:08.971Z,0
2023-02-13T04:07:12.865Z,0
2023-02-13T04:08:16.027Z,0
2023-02-13T04:09:19.490Z,0
2023-02-13T04:10:22.591Z,0
2023-02-13T04:11:25.662Z,0
2023-02-13T04:12:29.357Z,0
2023-02-13T04:13:32.119Z,0
2023-02-13T04:14:35.516Z,0
2023-02-13T04:15:38.704Z,0
2023-02-13T04:16:42.026Z,0
2023-02-13T04:17:45.829Z,0
2023-02-13T04:18:48.892Z,0
2023-02-13T04:19:52.661Z,0
2023-02-13T04:20:56.074Z,0
2023-02-13T04:22:01.515Z,0
2023-02-13T04:23:03.392Z,0
2023-02-13T04:24:06.508Z,0
2023-02-13T04:25:09.895Z,0
2023-02-13T04:26:13.318Z,0
2023-02-13T04:27:16.837Z,0
2023-02-13T04:28:19.892Z,0
2023-02-13T04:29:23.651Z,0
2023-02-13T04:30:27.025Z,0
2023-02-13T04:31:31.001Z,0
2023-02-13T04:32:35.118Z,0
2023-02-13T04:33:37.976Z,0
2023-02-13T04:34:40.746Z,0
2023-02-13T04:35:43.644Z,0
2023-02-13T04:36:46.739Z,0
2023-02-13T04:37:49.244Z,0
2023-02-13T04:38:52.346Z,0
2023-02-13T04:39:55.812Z,0
2023-02-13T04:40:59.182Z,0
2023-02-13T04:42:02.731Z,0
2023-02-13T04:43:05.835Z,0
2023-02-13T04:44:09.305Z,0
2023-02-13T04:45:12.093Z,0
2023-02-13T04:46:15.272Z,0
2023-02-13T04:47:18.825Z,0
2023-02-13T04:48:22.066Z,0
2023-02-13T04:49:25.105Z,0
2023-02-13T04:50:28.286Z,0
2023-02-13T04:51:31.725Z,0
2023-02-13T04:52:34.577Z,0
2023-02-13T04:53:37.724Z,0
2023-02-13T04:54:40.870Z,0
2023-02-13T04:55:44.590Z,0
2023-02-13T04:56:47.703Z,0
2023-02-13T04:57:50.794Z,0
2023-02-13T04:58:53.524Z,0
2023-02-13T04:59:56.630Z,0
2023-02-13T05:01:00.245Z,0
2023-02-13T05:02:03.845Z,0
2023-02-13T05:03:07.572Z,0
2023-02-13T05:04:10.719Z,0
2023-02-13T05:05:14.102Z,0
2023-02-13T05:06:17.359Z,0
2023-02-13T05:07:21.160Z,0
2023-02-13T05:08:23.643Z,0
2023-02-13T05:09:26.637Z,0
2023-02-13T05:10:30.298Z,0
2023-02-13T05:11:34.061Z,0
2023-02-13T05:12:36.816Z,0
2023-02-13T05:13:41.049Z,0
2023-02-13T05:14:44.532Z,0
2023-02-13T05:15:47.339Z,0
2023-02-13T05:16:50.899Z,0
2023-02-13T05:17:53.873Z,0
2023-02-13T05:18:57.513Z,0
2023-02-13T05:19:59.969Z,0
2023-02-13T05:21:03.263Z,0
2023-02-13T05:22:06.454Z,0
2023-02-13T05:23:10.163Z,0
2023-02-13T05:24:13.437Z,0
2023-02-13T05:25:16.890Z,0
2023-02-13T05:26:20.251Z,0
2023-02-13T05:27:24.083Z,0
2023-02-13T05:28:27.074Z,0
2023-02-13T05:29:31.236Z,0
2023-02-13T05:30:34.431Z,0
2023-02-13T05:31:37.630Z,0
2023-02-13T05:32:41.166Z,0
2023-02-13T05:33:44.550Z,0
2023-02-13T05:34:47.969Z,0
2023-02-13T05:35:51.249Z,0
2023-02-13T05:36:54.322Z,0
2023-02-13T05:37:57.610Z,0
2023-02-13T05:39:01.287Z,0
2023-02-13T05:40:03.580Z,0
2023-02-13T05:41:06.302Z,0
2023-02-13T05:42:09.461Z,0
2023-02-13T05:43:13.252Z,0
2023-02-13T05:44:17.049Z,0
2023-02-13T05:45:21.153Z,0
2023-02-13T05:46:24.502Z,0
2023-02-13T05:47:28.330Z,0
2023-02-13T05:48:31.631Z,0
2023-02-13T05:49:34.832Z,0
2023-02-13T05:50:37.550Z,0
2023-02-13T05:51:40.986Z,0
2023-02-13T05:52:43.433Z,0
2023-02-13T05:53:46.774Z,0
2023-02-13T05:54:50.480Z,0
2023-02-13T05:55:53.840Z,0
2023-02-13T05:56:56.658Z,0
2023-02-13T05:58:00.292Z,0
2023-02-13T05:59:03.421Z,0
2023-02-13T06:00:06.478Z,0
2023-02-13T06:01:10.120Z,0
2023-02-13T06:02:12.994Z,0
2023-02-13T06:03:16.198Z,0
2023-02-13T06:04:19.341Z,0
2023-02-13T06:05:22.249Z,0
2023-02-13T06:06:24.772Z,0
2023-02-13T06:07:27.235Z,4
2023-02-13T06:08:30.587Z,4
2023-02-13T06:09:34.044Z,0
2023-02-13T06:10:37.474Z,4
2023-02-13T06:11:40.924Z,4
2023-02-13T06:12:44.303Z,4
2023-02-13T06:13:47.364Z,8
2023-02-13T06:14:51.019Z,4
2023-02-13T06:15:55.049Z,4
2023-02-13T06:16:58.464Z,8
2023-02-13T06:18:01.779Z,8
2023-02-13T06:19:05.516Z,8
2023-02-13T06:20:08.907Z,12
2023-02-13T06:21:12.061Z,12
2023-02-13T06:22:15.374Z,16
2023-02-13T06:23:18.461Z,20
2023-02-13T06:24:21.467Z,20
2023-02-13T06:25:24.607Z,24
2023-02-13T06:26:28.348Z,32
2023-02-13T06:27:31.629Z,32
2023-02-13T06:28:35.030Z,40
2023-02-13T06:29:38.792Z,40
2023-02-13T06:30:42.559Z,44
2023-02-13T06:31:46.474Z,48
2023-02-13T06:32:50.585Z,52
2023-02-13T06:33:53.432Z,60
2023-02-13T06:34:56.515Z,64
2023-02-13T06:36:00.263Z,68
2023-02-13T06:37:03.382Z,72
2023-02-13T06:38:06.822Z,80
2023-02-13T06:39:09.258Z,84
2023-02-13T06:40:12.538Z,88
2023-02-13T06:41:15.422Z,88
2023-02-13T06:42:19.213Z,100
2023-02-13T06:43:22.863Z,104
2023-02-13T06:44:26.091Z,108
2023-02-13T06:45:29.085Z,120
2023-02-13T06:46:32.347Z,132
2023-02-13T06:47:36.289Z,144
2023-02-13T06:48:39.663Z,152
2023-02-13T06:49:43.084Z,164
2023-02-13T06:50:46.216Z,168
2023-02-13T06:51:48.662Z,176
2023-02-13T06:52:51.956Z,188
2023-02-13T06:53:54.485Z,196
2023-02-13T06:54:57.944Z,208
2023-02-13T06:56:01.732Z,220
2023-02-13T06:57:04.239Z,236
2023-02-13T06:58:07.621Z,244
2023-02-13T06:59:10.829Z,252
2023-02-13T07:00:14.611Z,260
2023-02-13T07:01:17.199Z,272
2023-02-13T07:02:20.960Z,280
2023-02-13T07:03:24.213Z,292
2023-02-13T07:04:27.660Z,300
2023-02-13T07:05:30.241Z,320
2023-02-13T07:06:33.609Z,340
2023-02-13T07:07:37.712Z,356
2023-02-13T07:08:41.133Z,368
2023-02-13T07:09:44.129Z,376
2023-02-13T07:10:47.918Z,388
2023-02-13T07:11:51.565Z,404
2023-02-13T07:13:05.181Z,416
2023-02-13T07:14:09.210Z,428
2023-02-13T07:15:12.556Z,444
2023-02-13T07:16:15.791Z,452
2023-02-13T07:17:19.766Z,472
2023-02-13T07:18:23.340Z,500
2023-02-13T07:19:25.867Z,520
2023-02-13T07:20:29.745Z,524
2023-02-13T07:21:33.379Z,516
2023-02-13T07:22:36.471Z,500
2023-02-13T07:23:39.168Z,504
2023-02-13T07:24:42.905Z,560
2023-02-13T07:25:46.339Z,588
2023-02-13T07:26:49.422Z,600
2023-02-13T07:27:52.887Z,616
2023-02-13T07:29:09.338Z,624
2023-02-13T07:30:15.378Z,620
2023-02-13T07:31:18.621Z,632
2023-02-13T07:32:22.363Z,656
2023-02-13T07:33:25.841Z,688
2023-02-13T07:34:29.234Z,728
2023-02-13T07:35:32.437Z,744
2023-02-13T07:36:35.567Z,756
2023-02-13T07:37:38.445Z,804
2023-02-13T07:38:42.169Z,864
2023-02-13T07:39:45.504Z,900
2023-02-13T07:40:48.294Z,904
2023-02-13T07:41:51.592Z,892
2023-02-13T07:42:54.733Z,904
2023-02-13T07:43:57.486Z,924
2023-02-13T07:45:01.212Z,968
2023-02-13T07:46:04.739Z,1000
2023-02-13T07:47:08.556Z,1032
2023-02-13T07:48:12.255Z,1044
2023-02-13T07:49:15.689Z,1052
2023-02-13T07:50:19.156Z,1036
2023-02-13T07:51:22.181Z,1040
2023-02-13T07:52:25.986Z,1044
2023-02-13T07:53:28.970Z,1056
2023-02-13T07:54:32.001Z,1108
2023-02-13T07:55:35.450Z,1192
2023-02-13T07:56:38.449Z,1216
2023-02-13T07:57:41.239Z,1244
2023-02-13T07:58:43.757Z,1260
2023-02-13T07:59:46.837Z,1236
2023-02-13T08:00:49.967Z,1252
2023-02-13T08:01:53.806Z,1296
2023-02-13T08:02:57.102Z,1292
2023-02-13T08:04:00.291Z,1292
2023-02-13T08:05:03.741Z,1300
2023-02-13T08:06:06.478Z,1276
2023-02-13T08:07:10.188Z,1304
2023-02-13T08:08:13.630Z,1320
2023-02-13T08:09:17.089Z,1364
2023-02-13T08:10:20.201Z,1420
2023-02-13T08:11:23.562Z,1380
2023-02-13T08:12:26.697Z,1380
2023-02-13T08:13:29.802Z,1456
2023-02-13T08:14:33.132Z,1572
2023-02-13T08:15:36.464Z,1668
2023-02-13T08:16:39.300Z,1672
2023-02-13T08:17:43.364Z,1676
2023-02-13T08:18:46.439Z,1676
2023-02-13T08:19:49.888Z,1652
2023-02-13T08:20:53.412Z,1680
2023-02-13T08:21:56.467Z,1764
2023-02-13T08:23:00.084Z,1872
2023-02-13T08:24:03.712Z,1944
2023-02-13T08:25:06.169Z,1920
2023-02-13T08:26:09.620Z,1880
2023-02-13T08:27:12.749Z,1936
2023-02-13T08:28:15.901Z,1984
2023-02-13T08:29:19.799Z,2028
2023-02-13T08:30:22.571Z,2072
2023-02-13T08:31:26.055Z,2112
2023-02-13T08:32:29.904Z,2184
2023-02-13T08:33:56.439Z,2272
2023-02-13T08:35:00.105Z,2340
2023-02-13T08:36:03.421Z,2408
2023-02-13T08:37:06.922Z,2516
2023-02-13T08:38:10.121Z,2696
2023-02-13T08:39:13.536Z,2732
2023-02-13T08:40:16.916Z,2680
2023-02-13T08:41:20.785Z,2688
2023-02-13T08:42:24.215Z,2784
2023-02-13T08:43:27.563Z,2848
2023-02-13T08:44:30.989Z,2864
2023-02-13T08:45:33.760Z,2928
2023-02-13T08:46:38.017Z,2892
2023-02-13T08:47:41.801Z,2836
2023-02-13T08:48:45.531Z,2808
2023-02-13T08:49:49.243Z,2872
2023-02-13T08:50:52.319Z,3044
2023-02-13T08:51:56.072Z,3140
2023-02-13T08:52:59.156Z,3180
2023-02-13T08:54:02.296Z,3220
2023-02-13T08:55:05.246Z,3240
2023-02-13T08:56:08.677Z,3276
2023-02-13T08:57:12.352Z,3336
2023-02-13T08:58:15.606Z,3408
2023-02-13T08:59:18.927Z,3468
2023-02-13T09:00:21.561Z,3684
2023-02-13T09:01:24.817Z,3780
2023-02-13T09:02:29.085Z,3776
2023-02-13T09:03:32.584Z,3788
2023-02-13T09:04:36.610Z,3844
2023-02-13T09:05:40.154Z,3928
2023-02-13T09:06:44.178Z,3996
2023-02-13T09:07:48.048Z,4044
2023-02-13T09:08:51.369Z,4392
2023-02-13T09:09:54.193Z,4748
2023-02-13T09:10:57.970Z,4644
2023-02-13T09:12:01.983Z,4556
2023-02-13T09:13:06.002Z,4524
2023-02-13T09:14:09.381Z,4456
2023-02-13T09:15:13.067Z,4364
2023-02-13T09:16:17.123Z,4352
2023-02-13T09:17:20.641Z,4456
2023-02-13T09:18:23.980Z,4496
2023-02-13T09:19:27.391Z,4436
2023-02-13T09:20:31.116Z,4328
2023-02-13T09:21:37.736Z,4400
2023-02-13T09:22:40.991Z,4452
2023-02-13T09:23:44.797Z,4500
2023-02-13T09:24:48.535Z,4500
2023-02-13T09:25:52.276Z,4524
2023-02-13T09:26:55.693Z,4508
2023-02-13T09:27:59.248Z,4580
2023-02-13T09:29:02.763Z,4684
2023-02-13T09:30:06.221Z,4872
2023-02-13T09:31:09.484Z,4928
2023-02-13T09:32:12.962Z,5000
2023-02-13T09:33:15.442Z,5060
2023-02-13T09:34:19.063Z,4860
2023-02-13T09:35:21.949Z,4772
2023-02-13T09:36:25.000Z,4876
2023-02-13T09:37:27.911Z,5052
2023-02-13T09:38:31.247Z,5044
2023-02-13T09:39:34.622Z,5024
2023-02-13T09:40:37.488Z,5168
2023-02-13T09:41:40.563Z,5232
2023-02-13T09:42:43.542Z,5384
2023-02-13T09:43:46.326Z,5260
2023-02-13T09:44:49.802Z,5280
2023-02-13T09:45:52.445Z,5268
2023-02-13T09:46:56.698Z,5208
2023-02-13T09:48:00.213Z,5244
2023-02-13T09:49:03.664Z,5284
2023-02-13T09:50:06.828Z,5196
2023-02-13T09:51:10.385Z,5260
2023-02-13T09:52:13.775Z,5344
2023-02-13T09:53:16.951Z,5372
2023-02-13T09:54:19.757Z,5404
2023-02-13T09:55:23.640Z,5380
2023-02-13T09:56:26.379Z,5384
2023-02-13T09:57:29.792Z,5360
2023-02-13T09:58:32.902Z,5452
2023-02-13T09:59:35.980Z,5396
2023-02-13T10:00:38.887Z,5252
2023-02-13T10:01:42.529Z,5188
2023-02-13T10:02:45.578Z,5116
2023-02-13T10:03:48.676Z,5300
2023-02-13T10:04:52.493Z,5224
2023-02-13T10:05:56.783Z,5248
2023-02-13T10:07:01.759Z,5200
2023-02-13T10:08:04.892Z,5328
2023-02-13T10:09:08.434Z,5392
2023-02-13T10:10:12.145Z,5380
2023-02-13T10:11:15.935Z,5524
2023-02-13T10:12:18.536Z,5412
2023-02-13T10:13:22.157Z,5364
2023-02-13T10:14:26.291Z,5340
2023-02-13T10:15:30.406Z,5132
2023-02-13T10:16:34.103Z,5140
2023-02-13T10:17:37.571Z,5216
2023-02-13T10:18:40.315Z,5428
2023-02-13T10:19:43.975Z,5360
2023-02-13T10:20:47.168Z,5332
2023-02-13T10:21:49.908Z,5368
2023-02-13T10:22:53.689Z,5368
2023-02-13T10:23:57.140Z,5332
2023-02-13T10:25:00.543Z,5404
2023-02-13T10:26:04.021Z,5328
2023-02-13T10:27:08.092Z,5300
2023-02-13T10:28:11.389Z,5296
2023-02-13T10:29:14.749Z,5392
2023-02-13T10:30:18.749Z,5400
2023-02-13T10:31:22.452Z,5544
2023-02-13T10:32:26.845Z,5488
2023-02-13T10:33:30.958Z,5544
2023-02-13T10:34:34.083Z,5640
2023-02-13T10:35:38.110Z,5664
2023-02-13T10:36:40.938Z,5632
2023-02-13T10:37:44.302Z,5568
2023-02-13T10:38:47.663Z,5888
2023-02-13T10:39:50.745Z,6004
2023-02-13T10:40:54.554Z,5864
2023-02-13T10:41:58.008Z,5744
2023-02-13T10:43:02.078Z,5748
2023-02-13T10:44:06.106Z,5908
2023-02-13T10:45:09.478Z,6080
2023-02-13T10:46:12.346Z,5952
2023-02-13T10:47:15.371Z,5852
2023-02-13T10:48:18.837Z,5756
2023-02-13T10:49:21.963Z,5712
2023-02-13T10:50:24.783Z,6044
2023-02-13T10:51:28.356Z,6288
2023-02-13T10:52:31.693Z,6384
2023-02-13T10:53:35.533Z,6308
2023-02-13T10:54:39.591Z,6584
2023-02-13T10:55:43.011Z,6760
2023-02-13T10:56:46.756Z,6612
2023-02-13T10:57:50.919Z,6404
2023-02-13T10:58:54.150Z,6156
2023-02-13T10:59:57.217Z,5904
2023-02-13T11:01:00.037Z,5776
2023-02-13T11:02:03.562Z,5780
2023-02-13T11:03:07.795Z,5848
2023-02-13T11:04:10.584Z,5948
2023-02-13T11:05:14.325Z,5852
2023-02-13T11:06:17.708Z,5648
2023-02-13T11:07:20.828Z,5592
2023-02-13T11:08:23.885Z,5752
2023-02-13T11:09:26.999Z,5800
2023-02-13T11:10:30.014Z,5816
2023-02-13T11:11:34.003Z,5992
2023-02-13T11:12:37.490Z,5992
2023-02-13T11:13:40.733Z,5960
2023-02-13T11:14:43.912Z,5888
2023-02-13T11:15:47.411Z,5908
2023-02-13T11:16:51.724Z,5940
2023-02-13T11:17:54.975Z,6012
2023-02-13T11:18:58.301Z,5916
2023-02-13T11:20:01.348Z,5640
2023-02-13T11:21:04.574Z,5508
2023-02-13T11:22:07.645Z,5676
2023-02-13T11:23:10.971Z,5940
2023-02-13T11:24:14.343Z,5892
2023-02-13T11:25:18.133Z,5840
2023-02-13T11:26:21.510Z,5896
2023-02-13T11:27:25.254Z,5916
2023-02-13T11:28:28.984Z,5728
2023-02-13T11:29:32.798Z,5584
2023-02-13T11:30:36.278Z,5696
2023-02-13T11:31:39.900Z,5860
2023-02-13T11:32:44.031Z,5800
2023-02-13T11:33:47.749Z,5728
2023-02-13T11:34:51.140Z,5948
2023-02-13T11:35:54.671Z,5896
2023-02-13T11:36:59.954Z,5748
2023-02-13T11:38:02.945Z,5544
2023-02-13T11:39:06.300Z,5488
2023-02-13T11:40:09.917Z,5668
2023-02-13T11:41:12.653Z,5736
2023-02-13T11:42:15.925Z,5640
2023-02-13T11:43:19.670Z,5496
2023-02-13T11:44:23.336Z,5340
2023-02-13T11:45:26.450Z,5356
2023-02-13T11:46:29.750Z,5444
2023-02-13T11:47:33.867Z,5564
2023-02-13T11:48:37.282Z,5312
2023-02-13T11:49:40.649Z,5256
2023-02-13T11:50:43.922Z,5540
2023-02-13T11:51:47.382Z,5488
2023-02-13T11:52:51.101Z,5284
2023-02-13T11:53:54.376Z,5240
2023-02-13T11:54:57.436Z,5220
2023-02-13T11:56:00.450Z,5180
2023-02-13T11:57:04.993Z,5080
2023-02-13T11:58:09.353Z,4952
2023-02-13T11:59:12.552Z,5076
2023-02-13T12:00:16.331Z,5096
2023-02-13T12:01:19.433Z,5064
2023-02-13T12:02:23.038Z,4948
2023-02-13T12:03:26.618Z,4776
2023-02-13T12:04:31.885Z,4756
2023-02-13T12:05:34.470Z,4780
2023-02-13T12:06:37.261Z,4764
2023-02-13T12:07:41.094Z,4772
2023-02-13T12:08:45.130Z,4708
2023-02-13T12:09:48.784Z,4660
2023-02-13T12:10:51.556Z,4520
2023-02-13T12:11:54.867Z,4312
2023-02-13T12:12:57.980Z,4260
2023-02-13T12:14:01.594Z,4444
2023-02-13T12:15:05.397Z,4804
2023-02-13T12:16:09.580Z,4924
2023-02-13T12:17:22.186Z,4772
2023-02-13T12:18:36.501Z,4900
2023-02-13T12:19:40.261Z,5284
2023-02-13T12:20:43.476Z,5192
2023-02-13T12:21:46.557Z,5352
2023-02-13T12:22:50.040Z,5540
2023-02-13T12:23:55.245Z,5508
2023-02-13T12:24:58.998Z,5544
2023-02-13T12:26:02.235Z,5540
2023-02-13T12:27:05.430Z,5380
2023-02-13T12:28:08.802Z,5256
2023-02-13T12:29:12.727Z,5176
2023-02-13T12:30:16.822Z,4984
2023-02-13T12:31:20.303Z,5164
2023-02-13T12:32:24.005Z,5176
2023-02-13T12:33:28.035Z,4968
2023-02-13T12:34:31.760Z,4888
2023-02-13T12:35:34.504Z,4912
2023-02-13T12:36:37.616Z,4848
2023-02-13T12:37:41.100Z,4760
2023-02-13T12:38:44.501Z,4652
2023-02-13T12:39:48.678Z,4728
2023-02-13T12:40:52.478Z,4764
2023-02-13T12:41:55.790Z,4760
2023-02-13T12:42:59.478Z,4588
2023-02-13T12:44:02.604Z,4468
2023-02-13T12:45:06.056Z,4372
2023-02-13T12:46:09.821Z,4332
2023-02-13T12:47:13.937Z,4400
2023-02-13T12:48:17.001Z,4412
2023-02-13T12:49:20.785Z,4408
2023-02-13T12:50:24.222Z,4468
2023-02-13T12:51:29.183Z,4652
2023-02-13T12:52:32.578Z,4712
2023-02-13T12:53:35.954Z,4608
2023-02-13T12:54:38.745Z,4540
2023-02-13T12:55:42.469Z,4520
2023-02-13T12:56:45.645Z,4572
2023-02-13T12:57:49.336Z,4656
2023-02-13T12:58:52.420Z,4564
2023-02-13T12:59:55.731Z,4412
2023-02-13T13:01:00.142Z,4404
2023-02-13T13:02:04.206Z,4476
2023-02-13T13:03:08.278Z,4428
2023-02-13T13:04:11.359Z,4336
2023-02-13T13:05:14.155Z,4276
2023-02-13T13:06:17.969Z,4308
2023-02-13T13:07:22.090Z,4228
2023-02-13T13:08:25.236Z,4212
2023-02-13T13:09:28.681Z,4384
2023-02-13T13:10:31.700Z,4420
2023-02-13T13:11:35.348Z,4308
2023-02-13T13:12:38.422Z,4248
2023-02-13T13:13:42.026Z,4148
2023-02-13T13:14:45.495Z,3944
2023-02-13T13:15:48.876Z,3828
2023-02-13T13:16:51.953Z,3776
2023-02-13T13:17:55.633Z,3716
2023-02-13T13:18:59.120Z,3684
2023-02-13T13:20:02.551Z,3672
2023-02-13T13:21:05.009Z,3624
2023-02-13T13:22:08.584Z,3512
2023-02-13T13:23:12.322Z,3400
2023-02-13T13:24:15.727Z,3284
2023-02-13T13:25:18.823Z,3228
2023-02-13T13:26:22.023Z,3232
2023-02-13T13:27:24.802Z,3136
2023-02-13T13:28:28.431Z,3048
2023-02-13T13:29:31.398Z,3040
2023-02-13T13:30:35.717Z,3056
2023-02-13T13:31:39.505Z,2956
2023-02-13T13:32:43.489Z,2932
2023-02-13T13:33:46.876Z,3096
2023-02-13T13:34:50.665Z,3284
2023-02-13T13:35:54.392Z,3304
2023-02-13T13:36:57.904Z,3236
2023-02-13T13:38:01.824Z,3132
2023-02-13T13:39:05.452Z,3096
2023-02-13T13:40:08.878Z,3044
2023-02-13T13:41:12.633Z,2984
2023-02-13T13:42:16.033Z,2956
2023-02-13T13:43:19.737Z,2884
2023-02-13T13:44:22.463Z,2832
2023-02-13T13:45:26.087Z,2924
2023-02-13T13:46:28.956Z,3020
2023-02-13T13:47:32.402Z,2968
2023-02-13T13:48:35.522Z,2912
2023-02-13T13:49:38.963Z,2816
2023-02-13T13:50:42.650Z,2716
2023-02-13T13:51:46.700Z,2656
2023-02-13T13:52:50.157Z,2632
2023-02-13T13:53:53.951Z,2636
2023-02-13T13:54:57.766Z,2636
2023-02-13T13:56:01.485Z,2676
2023-02-13T13:57:04.555Z,2804
2023-02-13T13:58:08.215Z,2852
2023-02-13T13:59:11.492Z,2784
2023-02-13T14:00:14.690Z,2780
2023-02-13T14:01:17.495Z,2804
2023-02-13T14:02:21.837Z,2692
2023-02-13T14:03:25.391Z,2616
2023-02-13T14:04:28.401Z,2664
2023-02-13T14:05:31.837Z,2704
2023-02-13T14:06:35.323Z,2756
2023-02-13T14:07:38.967Z,2764
2023-02-13T14:08:41.396Z,2720
2023-02-13T14:09:44.621Z,2628
2023-02-13T14:10:48.070Z,2532
2023-02-13T14:11:51.286Z,2516
2023-02-13T14:12:54.710Z,2528
2023-02-13T14:13:57.630Z,2536
2023-02-13T14:15:01.643Z,2496
2023-02-13T14:16:05.672Z,2392
2023-02-13T14:17:09.155Z,2292
2023-02-13T14:18:12.886Z,2204
2023-02-13T14:19:16.528Z,2200
2023-02-13T14:20:20.521Z,2296
2023-02-13T14:21:23.588Z,2408
2023-02-13T14:22:27.838Z,2492
2023-02-13T14:23:30.991Z,2504
2023-02-13T14:24:34.723Z,2528
2023-02-13T14:25:38.116Z,2564
2023-02-13T14:26:41.753Z,2604
2023-02-13T14:27:45.348Z,2592
2023-02-13T14:28:48.783Z,2500
2023-02-13T14:29:52.337Z,2404
2023-02-13T14:30:56.923Z,2296
2023-02-13T14:32:03.290Z,2224
2023-02-13T14:33:07.622Z,2220
2023-02-13T14:34:11.263Z,2160
2023-02-13T14:35:14.148Z,2136
2023-02-13T14:36:16.873Z,2124
2023-02-13T14:37:20.228Z,2128
2023-02-13T14:38:24.299Z,2112
2023-02-13T14:39:28.050Z,2036
2023-02-13T14:40:31.484Z,1996
2023-02-13T14:41:35.225Z,2000
2023-02-13T14:42:38.777Z,1936
2023-02-13T14:43:42.430Z,1844
2023-02-13T14:44:45.690Z,1784
2023-02-13T14:45:49.214Z,1760